Time,TemperatureF,DewpointF,PressureIn,WindDirection,WindDirectionDegrees,WindSpeedMPH,WindSpeedGustMPH,Humidity,HourlyPrecipIn,Conditions,Clouds,dailyrainin,SoftwareType,DateUTC
2013-04-22 00:03:00,37.9,32.3,30.08,South,187,4.7,6.5,80,0.00,,---,0.00,VWS V13.01,2013-04-22 05:03:00,
2013-04-22 00:09:00,37.9,32.6,30.08,SW,232,6.5,6.5,81,0.00,,---,0.00,VWS V13.01,2013-04-22 05:09:00,
2013-04-22 00:15:00,37.9,33.0,30.08,SW,217,6.9,7.4,82,0.00,,---,0.00,VWS V13.01,2013-04-22 05:15:00,
2013-04-22 00:20:00,37.9,33.0,30.08,South,174,4.7,4.7,82,0.00,,---,0.00,VWS V13.01,2013-04-22 05:20:00,
2013-04-22 00:26:00,37.9,33.0,30.08,SW,232,5.6,5.6,82,0.00,,---,0.00,VWS V13.01,2013-04-22 05:26:00,
2013-04-22 00:31:00,37.9,33.2,30.08,SW,214,3.6,5.1,83,0.00,,---,0.00,VWS V13.01,2013-04-22 05:31:00,
2013-04-22 00:36:00,37.9,33.2,30.08,South,189,3.1,4.0,83,0.00,,---,0.00,VWS V13.01,2013-04-22 05:36:00,
2013-04-22 00:42:00,37.9,33.2,30.08,SW,223,3.6,5.1,83,0.00,,---,0.00,VWS V13.01,2013-04-22 05:42:00,
2013-04-22 00:47:00,37.9,33.5,30.08,SSW,211,3.6,4.7,84,0.00,,---,0.00,VWS V13.01,2013-04-22 05:47:00,
2013-04-22 00:53:00,38.1,33.7,30.08,SW,235,4.5,4.7,84,0.00,,---,0.00,VWS V13.01,2013-04-22 05:53:00,
2013-04-22 00:58:00,38.1,33.7,30.08,SW,221,5.1,5.1,84,0.00,,---,0.00,VWS V13.01,2013-04-22 05:58:00,
2013-04-22 01:03:00,38.3,34.2,30.08,SW,218,4.0,4.5,85,0.00,,---,0.00,VWS V13.01,2013-04-22 06:03:00,
2013-04-22 01:08:00,38.3,34.2,30.08,SW,226,3.1,3.6,85,0.00,,---,0.00,VWS V13.01,2013-04-22 06:08:00,
2013-04-22 01:14:00,38.3,34.2,30.08,SW,227,6.0,6.0,85,0.00,,---,0.00,VWS V13.01,2013-04-22 06:14:00,
2013-04-22 01:20:00,38.5,34.4,30.08,West,277,3.6,5.1,85,0.00,,---,0.00,VWS V13.01,2013-04-22 06:20:00,
2013-04-22 01:25:00,38.5,34.7,30.08,SSW,210,2.7,4.0,86,0.00,,---,0.00,VWS V13.01,2013-04-22 06:25:00,
2013-04-22 01:31:00,38.3,34.5,30.11,WSW,246,4.0,6.5,86,0.00,,---,0.00,VWS V13.01,2013-04-22 06:31:00,
2013-04-22 01:36:00,38.3,34.5,30.11,West,259,4.7,5.6,86,0.00,,---,0.00,VWS V13.01,2013-04-22 06:36:00,
2013-04-22 01:42:00,38.3,34.5,30.11,WSW,249,3.6,4.0,86,0.00,,---,0.00,VWS V13.01,2013-04-22 06:42:00,
2013-04-22 01:48:00,38.3,34.5,30.11,WSW,237,3.6,4.5,86,0.00,,---,0.00,VWS V13.01,2013-04-22 06:48:00,
2013-04-22 01:53:00,38.1,34.3,30.11,West,263,4.0,7.8,86,0.00,,---,0.00,VWS V13.01,2013-04-22 06:53:00,
2013-04-22 01:59:00,38.1,34.6,30.11,WSW,252,4.7,6.0,87,0.00,,---,0.00,VWS V13.01,2013-04-22 06:59:00,
2013-04-22 02:04:00,38.1,34.6,30.11,WNW,299,4.0,4.7,87,0.00,,---,0.00,VWS V13.01,2013-04-22 07:04:00,
2013-04-22 02:10:00,37.9,34.4,30.11,WSW,249,6.0,6.9,87,0.00,,---,0.00,VWS V13.01,2013-04-22 07:10:00,
2013-04-22 02:16:00,37.8,34.2,30.11,WNW,283,4.7,7.4,87,0.00,,---,0.00,VWS V13.01,2013-04-22 07:16:00,
2013-04-22 02:21:00,37.6,34.1,30.11,NW,313,4.7,4.7,87,0.00,,---,0.00,VWS V13.01,2013-04-22 07:21:00,
2013-04-22 02:26:00,37.4,33.9,30.11,West,276,4.0,5.1,87,0.00,,---,0.00,VWS V13.01,2013-04-22 07:26:00,
2013-04-22 02:31:00,37.2,33.7,30.11,West,266,3.1,5.1,87,0.00,,---,0.00,VWS V13.01,2013-04-22 07:31:00,
2013-04-22 02:36:00,37.0,33.5,30.11,West,271,4.0,5.6,87,0.00,,---,0.00,VWS V13.01,2013-04-22 07:36:00,
2013-04-22 02:41:00,37.0,33.5,30.11,West,281,4.7,6.5,87,0.00,,---,0.00,VWS V13.01,2013-04-22 07:41:00,
2013-04-22 02:47:00,36.9,33.4,30.11,WNW,287,0.0,4.0,87,0.00,,---,0.00,VWS V13.01,2013-04-22 07:47:00,
2013-04-22 02:52:00,36.7,33.2,30.11,WNW,289,4.5,4.5,87,0.00,,---,0.00,VWS V13.01,2013-04-22 07:52:00,
2013-04-22 02:57:00,36.7,33.2,30.11,West,280,4.5,6.0,87,0.00,,---,0.00,VWS V13.01,2013-04-22 07:57:00,
2013-04-22 03:02:00,36.5,32.7,30.11,NNW,340,4.5,4.7,86,0.00,,---,0.00,VWS V13.01,2013-04-22 08:02:00,
2013-04-22 03:08:00,36.3,32.5,30.11,NW,307,4.0,4.7,86,0.00,,---,0.00,VWS V13.01,2013-04-22 08:08:00,
2013-04-22 03:13:00,36.1,32.4,30.11,WNW,292,4.0,4.7,86,0.00,,---,0.00,VWS V13.01,2013-04-22 08:13:00,
2013-04-22 03:19:00,36.1,32.4,30.11,NW,310,4.0,4.7,86,0.00,,---,0.00,VWS V13.01,2013-04-22 08:19:00,
2013-04-22 03:24:00,36.1,32.4,30.11,WNW,289,3.6,7.4,86,0.00,,---,0.00,VWS V13.01,2013-04-22 08:24:00,
2013-04-22 03:30:00,36.1,32.4,30.11,NW,315,3.6,4.7,86,0.00,,---,0.00,VWS V13.01,2013-04-22 08:30:00,
2013-04-22 03:35:00,36.0,32.2,30.11,West,268,4.5,4.7,86,0.00,,---,0.00,VWS V13.01,2013-04-22 08:35:00,
2013-04-22 03:40:00,35.8,32.0,30.11,NW,320,4.7,6.9,86,0.00,,---,0.00,VWS V13.01,2013-04-22 08:40:00,
2013-04-22 03:46:00,35.8,32.0,30.11,WNW,283,0.0,2.7,86,0.00,,---,0.00,VWS V13.01,2013-04-22 08:46:00,
2013-04-22 03:51:00,35.6,31.8,30.11,WNW,285,4.0,4.0,86,0.00,,---,0.00,VWS V13.01,2013-04-22 08:51:00,
2013-04-22 03:56:00,35.6,31.8,30.11,SW,235,6.0,6.0,86,0.00,,---,0.00,VWS V13.01,2013-04-22 08:56:00,
2013-04-22 04:02:00,35.6,31.5,30.14,WNW,285,3.6,4.5,85,0.00,,---,0.00,VWS V13.01,2013-04-22 09:02:00,
2013-04-22 04:07:00,35.4,31.7,30.14,West,279,4.0,4.7,86,0.00,,---,0.00,VWS V13.01,2013-04-22 09:07:00,
2013-04-22 04:12:00,35.4,31.7,30.14,WNW,290,6.0,8.3,86,0.00,,---,0.00,VWS V13.01,2013-04-22 09:12:00,
2013-04-22 04:18:00,35.4,31.7,30.14,WNW,292,4.0,4.7,86,0.00,,---,0.00,VWS V13.01,2013-04-22 09:18:00,
2013-04-22 04:23:00,35.4,31.7,30.14,NNW,333,4.0,4.5,86,0.00,,---,0.00,VWS V13.01,2013-04-22 09:23:00,
2013-04-22 04:28:00,35.2,31.5,30.14,WNW,295,5.1,6.0,86,0.00,,---,0.00,VWS V13.01,2013-04-22 09:28:00,
2013-04-22 04:33:00,35.1,31.3,30.14,NW,323,4.0,5.1,86,0.00,,---,0.00,VWS V13.01,2013-04-22 09:33:00,
2013-04-22 04:39:00,35.1,31.0,30.14,WNW,296,4.5,4.7,85,0.00,,---,0.00,VWS V13.01,2013-04-22 09:39:00,
2013-04-22 04:45:00,35.1,31.0,30.14,NNW,339,3.1,5.6,85,0.00,,---,0.00,VWS V13.01,2013-04-22 09:45:00,
2013-04-22 04:51:00,34.9,30.8,30.14,North,350,4.5,4.5,85,0.00,,---,0.00,VWS V13.01,2013-04-22 09:51:00,
2013-04-22 04:56:00,34.9,30.8,30.14,West,281,3.6,4.0,85,0.00,,---,0.00,VWS V13.01,2013-04-22 09:56:00,
2013-04-22 05:01:00,34.9,30.8,30.17,NW,312,4.5,4.7,85,0.00,,---,0.00,VWS V13.01,2013-04-22 10:01:00,
2013-04-22 05:06:00,34.9,30.5,30.17,NNW,335,4.5,4.7,84,0.00,,---,0.00,VWS V13.01,2013-04-22 10:06:00,
2013-04-22 05:12:00,34.7,30.4,30.17,North,3,3.6,4.7,84,0.00,,---,0.00,VWS V13.01,2013-04-22 10:12:00,
2013-04-22 05:18:00,34.5,29.9,30.17,NW,321,4.5,4.5,83,0.00,,---,0.00,VWS V13.01,2013-04-22 10:18:00,
2013-04-22 05:23:00,34.5,29.6,30.17,WNW,303,3.6,4.0,82,0.00,,---,0.00,VWS V13.01,2013-04-22 10:23:00,
2013-04-22 05:29:00,34.3,29.4,30.17,WNW,303,3.1,4.0,82,0.00,,---,0.00,VWS V13.01,2013-04-22 10:29:00,
2013-04-22 05:35:00,34.3,29.4,30.17,WNW,303,3.1,4.0,82,0.00,,---,0.00,VWS V13.01,2013-04-22 10:35:00,
2013-04-22 05:41:00,34.2,29.0,30.17,WSW,247,0.0,3.1,81,0.00,,---,0.00,VWS V13.01,2013-04-22 10:41:00,
2013-04-22 05:47:00,33.8,28.6,30.17,WSW,246,0.0,0.0,81,0.00,,---,0.00,VWS V13.01,2013-04-22 10:47:00,
2013-04-22 05:54:00,33.6,28.4,30.17,WSW,246,0.0,0.0,81,0.00,,---,0.00,VWS V13.01,2013-04-22 10:54:00,
2013-04-22 05:59:00,33.6,28.1,30.17,WSW,246,3.1,3.6,80,0.00,,---,0.00,VWS V13.01,2013-04-22 10:59:00,
2013-04-22 06:04:00,33.4,27.9,30.17,WSW,246,2.7,3.6,80,0.00,,---,0.00,VWS V13.01,2013-04-22 11:04:00,
2013-04-22 06:10:00,33.3,27.8,30.17,WSW,246,0.0,0.0,80,0.00,,---,0.00,VWS V13.01,2013-04-22 11:10:00,
2013-04-22 06:15:00,33.1,27.6,30.20,WSW,246,0.0,0.0,80,0.00,,---,0.00,VWS V13.01,2013-04-22 11:15:00,
2013-04-22 06:20:00,33.1,27.6,30.20,WSW,246,0.0,0.0,80,0.00,,---,0.00,VWS V13.01,2013-04-22 11:20:00,
2013-04-22 06:25:00,33.1,27.6,30.20,WSW,246,0.0,0.0,80,0.00,,---,0.00,VWS V13.01,2013-04-22 11:25:00,
2013-04-22 06:31:00,33.1,27.3,30.20,WSW,246,0.0,0.0,79,0.00,,---,0.00,VWS V13.01,2013-04-22 11:31:00,
2013-04-22 06:36:00,33.1,27.3,30.20,WSW,246,0.0,0.0,79,0.00,,---,0.00,VWS V13.01,2013-04-22 11:36:00,
2013-04-22 06:42:00,33.1,27.3,30.20,WSW,246,3.6,3.6,79,0.00,,---,0.00,VWS V13.01,2013-04-22 11:42:00,
2013-04-22 06:48:00,33.1,27.3,30.20,West,263,0.0,4.5,79,0.00,,---,0.00,VWS V13.01,2013-04-22 11:48:00,
2013-04-22 06:53:00,33.3,27.5,30.20,West,263,0.0,0.0,79,0.00,,---,0.00,VWS V13.01,2013-04-22 11:53:00,
2013-04-22 06:59:00,33.3,27.5,30.20,West,263,0.0,0.0,79,0.00,,---,0.00,VWS V13.01,2013-04-22 11:59:00,
2013-04-22 07:05:00,33.4,27.6,30.20,WNW,283,2.7,3.6,79,0.00,,---,0.00,VWS V13.01,2013-04-22 12:05:00,
2013-04-22 07:10:00,33.4,27.3,30.20,NNW,330,3.6,4.5,78,0.00,,---,0.00,VWS V13.01,2013-04-22 12:10:00,
2013-04-22 07:16:00,33.6,27.5,30.23,North,10,3.6,4.0,78,0.00,,---,0.00,VWS V13.01,2013-04-22 12:16:00,
2013-04-22 07:21:00,33.8,26.7,30.23,NW,322,3.1,4.0,75,0.00,,---,0.00,VWS V13.01,2013-04-22 12:21:00,
2013-04-22 07:27:00,34.0,26.6,30.20,NNW,344,0.0,4.0,74,0.00,,---,0.00,VWS V13.01,2013-04-22 12:27:00,
2013-04-22 07:32:00,34.2,26.1,30.20,North,357,4.0,6.5,72,0.00,,---,0.00,VWS V13.01,2013-04-22 12:32:00,
2013-04-22 07:37:00,34.5,25.4,30.20,NW,307,3.1,5.6,69,0.00,,---,0.00,VWS V13.01,2013-04-22 12:37:00,
2013-04-22 07:43:00,34.9,24.7,30.20,North,350,4.5,4.7,66,0.00,,---,0.00,VWS V13.01,2013-04-22 12:43:00,
2013-04-22 07:48:00,35.1,24.1,30.20,NW,309,0.0,3.1,64,0.00,,---,0.00,VWS V13.01,2013-04-22 12:48:00,
2013-04-22 07:53:00,35.2,23.5,30.20,NNW,348,3.1,5.1,62,0.00,,---,0.00,VWS V13.01,2013-04-22 12:53:00,
2013-04-22 07:58:00,35.6,22.3,30.23,NNW,335,3.6,4.5,58,0.00,,---,0.00,VWS V13.01,2013-04-22 12:58:00,
2013-04-22 08:03:00,35.8,21.2,30.23,NNW,328,4.0,5.1,55,0.00,,---,0.00,VWS V13.01,2013-04-22 13:03:00,
2013-04-22 08:08:00,35.8,20.8,30.23,WNW,300,4.7,6.0,54,0.00,,---,0.00,VWS V13.01,2013-04-22 13:08:00,
2013-04-22 08:14:00,36.0,20.5,30.23,North,2,3.6,5.1,53,0.00,,---,0.00,VWS V13.01,2013-04-22 13:14:00,
2013-04-22 08:19:00,36.1,19.8,30.23,North,357,5.6,6.5,51,0.00,,---,0.00,VWS V13.01,2013-04-22 13:19:00,
2013-04-22 08:24:00,36.3,19.9,30.23,WNW,282,6.9,6.9,51,0.00,,---,0.00,VWS V13.01,2013-04-22 13:24:00,
2013-04-22 08:29:00,36.5,19.6,30.23,North,9,4.5,5.6,50,0.00,,---,0.00,VWS V13.01,2013-04-22 13:29:00,
2013-04-22 08:36:00,36.9,20.0,30.23,NW,318,4.7,4.7,50,0.00,,---,0.00,VWS V13.01,2013-04-22 13:36:00,
2013-04-22 08:41:00,37.2,19.8,30.23,North,353,4.7,4.7,49,0.00,,---,0.00,VWS V13.01,2013-04-22 13:41:00,
2013-04-22 08:46:00,37.4,19.5,30.20,North,353,4.5,4.5,48,0.00,,---,0.00,VWS V13.01,2013-04-22 13:46:00,
2013-04-22 08:52:00,37.9,20.5,30.20,North,350,0.0,0.0,49,0.00,,---,0.00,VWS V13.01,2013-04-22 13:52:00,
2013-04-22 08:58:00,38.7,20.7,30.20,North,353,4.0,4.0,48,0.00,,---,0.00,VWS V13.01,2013-04-22 13:58:00,
2013-04-22 09:04:00,39.2,19.1,30.20,North,2,2.7,3.6,44,0.00,,---,0.00,VWS V13.01,2013-04-22 14:04:00,
2013-04-22 09:09:00,39.2,18.6,30.20,North,357,4.7,6.5,43,0.00,,---,0.00,VWS V13.01,2013-04-22 14:09:00,
2013-04-22 09:14:00,39.0,17.9,30.20,NNE,17,6.5,6.5,42,0.00,,---,0.00,VWS V13.01,2013-04-22 14:14:00,
2013-04-22 09:20:00,39.2,18.0,30.20,NNE,27,5.1,5.1,42,0.00,,---,0.00,VWS V13.01,2013-04-22 14:20:00,
2013-04-22 09:25:00,39.4,17.7,30.20,NNE,27,6.9,8.3,41,0.00,,---,0.00,VWS V13.01,2013-04-22 14:25:00,
2013-04-22 09:32:00,39.4,17.7,30.20,SSE,147,3.6,4.0,41,0.00,,---,0.00,VWS V13.01,2013-04-22 14:32:00,
2013-04-22 09:37:00,39.7,18.0,30.20,NNW,338,6.0,7.4,41,0.00,,---,0.00,VWS V13.01,2013-04-22 14:37:00,
2013-04-22 09:42:00,39.9,17.6,30.20,NNW,339,4.0,6.5,40,0.00,,---,0.00,VWS V13.01,2013-04-22 14:42:00,
2013-04-22 09:47:00,40.1,18.3,30.20,North,11,5.6,5.6,41,0.00,,---,0.00,VWS V13.01,2013-04-22 14:47:00,
2013-04-22 09:53:00,40.5,18.1,30.20,North,350,4.0,6.0,40,0.00,,---,0.00,VWS V13.01,2013-04-22 14:53:00,
2013-04-22 09:58:00,40.3,17.9,30.23,North,8,4.5,5.1,40,0.00,,---,0.00,VWS V13.01,2013-04-22 14:58:00,
2013-04-22 10:03:00,40.5,18.1,30.23,North,357,3.1,3.6,40,0.00,,---,0.00,VWS V13.01,2013-04-22 15:03:00,
2013-04-22 10:08:00,40.6,18.2,30.23,North,8,4.5,5.6,40,0.00,,---,0.00,VWS V13.01,2013-04-22 15:08:00,
2013-04-22 10:13:00,41.0,18.0,30.20,NNE,31,6.0,6.0,39,0.00,,---,0.00,VWS V13.01,2013-04-22 15:13:00,
2013-04-22 10:19:00,41.4,18.3,30.20,NNW,345,4.7,5.6,39,0.00,,---,0.00,VWS V13.01,2013-04-22 15:19:00,
2013-04-22 10:24:00,41.2,17.5,30.20,North,1,4.5,4.7,38,0.00,,---,0.00,VWS V13.01,2013-04-22 15:24:00,
2013-04-22 10:29:00,41.5,17.8,30.23,North,357,3.6,4.0,38,0.00,,---,0.00,VWS V13.01,2013-04-22 15:29:00,
2013-04-22 10:34:00,42.1,18.3,30.23,NNE,17,4.7,6.9,38,0.00,,---,0.00,VWS V13.01,2013-04-22 15:34:00,
2013-04-22 10:40:00,41.7,18.0,30.23,North,9,4.0,4.7,38,0.00,,---,0.00,VWS V13.01,2013-04-22 15:40:00,
2013-04-22 10:45:00,41.5,17.8,30.23,North,357,4.7,5.6,38,0.00,,---,0.00,VWS V13.01,2013-04-22 15:45:00,
2013-04-22 10:50:00,41.2,17.5,30.23,NNE,24,4.7,5.6,38,0.00,,---,0.00,VWS V13.01,2013-04-22 15:50:00,
2013-04-22 10:55:00,41.0,17.4,30.23,NNE,24,2.7,4.5,38,0.00,,---,0.00,VWS V13.01,2013-04-22 15:55:00,
2013-04-22 11:00:00,40.8,16.6,30.23,NNE,24,4.0,4.0,37,0.00,,---,0.00,VWS V13.01,2013-04-22 16:00:00,
2013-04-22 11:05:00,40.8,17.2,30.23,NW,326,4.7,5.6,38,0.00,,---,0.00,VWS V13.01,2013-04-22 16:05:00,
2013-04-22 11:10:00,41.2,16.9,30.23,North,357,4.5,4.5,37,0.00,,---,0.00,VWS V13.01,2013-04-22 16:10:00,
2013-04-22 11:15:00,41.5,16.6,30.23,NNW,345,4.7,5.1,36,0.00,,---,0.00,VWS V13.01,2013-04-22 16:15:00,
2013-04-22 11:20:00,41.4,16.4,30.23,West,270,4.7,4.7,36,0.00,,---,0.00,VWS V13.01,2013-04-22 16:20:00,
2013-04-22 11:26:00,42.3,16.6,30.23,SW,219,5.1,6.5,35,0.00,,---,0.00,VWS V13.01,2013-04-22 16:26:00,
2013-04-22 11:31:00,42.4,16.1,30.23,WNW,301,0.0,2.7,34,0.00,,---,0.00,VWS V13.01,2013-04-22 16:31:00,
2013-04-22 11:36:00,42.8,15.7,30.23,North,357,3.6,4.5,33,0.00,,---,0.00,VWS V13.01,2013-04-22 16:36:00,
2013-04-22 11:41:00,43.3,16.9,30.23,NNW,336,0.0,2.7,34,0.00,,---,0.00,VWS V13.01,2013-04-22 16:41:00,
2013-04-22 11:47:00,43.9,16.7,30.23,NNW,346,6.0,6.0,33,0.00,,---,0.00,VWS V13.01,2013-04-22 16:47:00,
2013-04-22 11:52:00,43.7,16.5,30.23,WNW,287,0.0,4.5,33,0.00,,---,0.00,VWS V13.01,2013-04-22 16:52:00,
2013-04-22 11:58:00,44.1,16.1,30.23,SSE,154,4.0,4.0,32,0.00,,---,0.00,VWS V13.01,2013-04-22 16:58:00,
2013-04-22 12:03:00,44.4,16.4,30.23,North,8,3.6,4.7,32,0.00,,---,0.00,VWS V13.01,2013-04-22 17:03:00,
2013-04-22 12:09:00,45.0,16.2,30.23,West,278,0.0,3.1,31,0.00,,---,0.00,VWS V13.01,2013-04-22 17:09:00,
2013-04-22 12:14:00,45.3,14.9,30.23,NE,44,5.6,5.6,29,0.00,,---,0.00,VWS V13.01,2013-04-22 17:14:00,
2013-04-22 12:19:00,44.8,14.5,30.23,NE,47,0.0,6.0,29,0.00,,---,0.00,VWS V13.01,2013-04-22 17:19:00,
2013-04-22 12:25:00,44.8,14.5,30.23,North,10,2.7,5.1,29,0.00,,---,0.00,VWS V13.01,2013-04-22 17:25:00,
2013-04-22 12:30:00,45.0,14.6,30.23,North,5,4.0,4.7,29,0.00,,---,0.00,VWS V13.01,2013-04-22 17:30:00,
2013-04-22 12:35:00,45.1,14.8,30.23,NNE,32,4.7,5.6,29,0.00,,---,0.00,VWS V13.01,2013-04-22 17:35:00,
2013-04-22 12:40:00,44.8,13.7,30.23,NNE,22,0.0,3.1,28,0.00,,---,0.00,VWS V13.01,2013-04-22 17:40:00,
2013-04-22 12:46:00,45.3,14.1,30.23,NW,313,5.1,6.5,28,0.00,,---,0.00,VWS V13.01,2013-04-22 17:46:00,
2013-04-22 12:51:00,45.5,14.3,30.23,NNE,22,4.0,4.0,28,0.00,,---,0.00,VWS V13.01,2013-04-22 17:51:00,
2013-04-22 12:56:00,45.9,14.6,30.23,North,357,3.6,4.5,28,0.00,,---,0.00,VWS V13.01,2013-04-22 17:56:00,
2013-04-22 13:02:00,46.2,14.9,30.23,NW,324,4.0,5.6,28,0.00,,---,0.00,VWS V13.01,2013-04-22 18:02:00,
2013-04-22 13:07:00,46.4,15.1,30.23,WSW,244,0.0,0.0,28,0.00,,---,0.00,VWS V13.01,2013-04-22 18:07:00,
2013-04-22 13:13:00,46.9,15.6,30.23,NE,49,4.0,4.7,28,0.00,,---,0.00,VWS V13.01,2013-04-22 18:13:00,
2013-04-22 13:18:00,47.1,14.9,30.23,NE,34,4.7,5.6,27,0.00,,---,0.00,VWS V13.01,2013-04-22 18:18:00,
2013-04-22 13:24:00,46.6,14.4,30.23,North,357,6.0,6.0,27,0.00,,---,0.00,VWS V13.01,2013-04-22 18:24:00,
2013-04-22 13:29:00,46.6,14.4,30.20,NNE,17,3.6,4.7,27,0.00,,---,0.00,VWS V13.01,2013-04-22 18:29:00,
2013-04-22 13:34:00,46.9,15.6,30.20,NE,40,4.0,5.6,28,0.00,,---,0.00,VWS V13.01,2013-04-22 18:34:00,
2013-04-22 13:39:00,46.8,15.4,30.20,North,1,0.0,3.6,28,0.00,,---,0.00,VWS V13.01,2013-04-22 18:39:00,
2013-04-22 13:45:00,47.3,15.0,30.20,North,350,0.0,4.5,27,0.00,,---,0.00,VWS V13.01,2013-04-22 18:45:00,
2013-04-22 13:50:00,47.3,15.9,30.20,NE,37,4.5,5.1,28,0.00,,---,0.00,VWS V13.01,2013-04-22 18:50:00,
2013-04-22 13:56:00,46.9,15.6,30.20,ENE,64,4.5,6.0,28,0.00,,---,0.00,VWS V13.01,2013-04-22 18:56:00,
2013-04-22 14:01:00,46.8,15.4,30.20,WNW,282,4.7,6.5,28,0.00,,---,0.00,VWS V13.01,2013-04-22 19:01:00,
2013-04-22 14:07:00,46.9,15.6,30.20,NE,36,3.6,6.0,28,0.00,,---,0.00,VWS V13.01,2013-04-22 19:07:00,
2013-04-22 14:12:00,47.1,14.9,30.17,North,2,4.7,5.6,27,0.00,,---,0.00,VWS V13.01,2013-04-22 19:12:00,
2013-04-22 14:17:00,47.3,15.0,30.17,NW,306,5.6,7.4,27,0.00,,---,0.00,VWS V13.01,2013-04-22 19:17:00,
2013-04-22 14:23:00,46.9,14.7,30.17,North,4,4.0,7.8,27,0.00,,---,0.00,VWS V13.01,2013-04-22 19:23:00,
2013-04-22 14:28:00,46.4,14.2,30.17,ENE,65,4.7,5.1,27,0.00,,---,0.00,VWS V13.01,2013-04-22 19:28:00,
2013-04-22 14:33:00,46.2,14.9,30.17,North,7,4.5,7.8,28,0.00,,---,0.00,VWS V13.01,2013-04-22 19:33:00,
2013-04-22 14:38:00,45.7,14.5,30.17,NNE,20,6.0,6.9,28,0.00,,---,0.00,VWS V13.01,2013-04-22 19:38:00,
2013-04-22 14:44:00,44.8,13.7,30.20,North,357,6.9,6.9,28,0.00,,---,0.00,VWS V13.01,2013-04-22 19:44:00,
2013-04-22 14:49:00,44.8,13.7,30.20,NE,39,5.1,6.5,28,0.00,,---,0.00,VWS V13.01,2013-04-22 19:49:00,
2013-04-22 14:55:00,44.2,14.0,30.20,North,3,4.5,6.9,29,0.00,,---,0.00,VWS V13.01,2013-04-22 19:55:00,
2013-04-22 15:00:00,43.9,13.7,30.20,NW,314,4.7,5.6,29,0.00,,---,0.00,VWS V13.01,2013-04-22 20:00:00,
2013-04-22 15:05:00,43.5,13.4,30.20,NNE,14,6.9,8.7,29,0.00,,---,0.00,VWS V13.01,2013-04-22 20:05:00,
2013-04-22 15:11:00,43.3,13.2,30.20,NE,47,4.7,6.9,29,0.00,,---,0.00,VWS V13.01,2013-04-22 20:11:00,
2013-04-22 15:16:00,43.3,13.2,30.20,NE,43,7.8,7.8,29,0.00,,---,0.00,VWS V13.01,2013-04-22 20:16:00,
2013-04-22 15:21:00,43.0,12.9,30.20,North,357,5.1,6.0,29,0.00,,---,0.00,VWS V13.01,2013-04-22 20:21:00,
2013-04-22 15:26:00,42.8,12.8,30.20,NE,38,6.5,6.5,29,0.00,,---,0.00,VWS V13.01,2013-04-22 20:26:00,
2013-04-22 15:32:00,42.8,12.8,30.20,NNE,19,6.5,8.3,29,0.00,,---,0.00,VWS V13.01,2013-04-22 20:32:00,
2013-04-22 15:37:00,42.4,13.2,30.20,NE,37,6.5,7.4,30,0.00,,---,0.00,VWS V13.01,2013-04-22 20:37:00,
2013-04-22 15:42:00,42.1,12.9,30.20,NNE,25,3.6,6.0,30,0.00,,---,0.00,VWS V13.01,2013-04-22 20:42:00,
2013-04-22 15:48:00,41.7,12.6,30.20,North,0,4.0,7.4,30,0.00,,---,0.00,VWS V13.01,2013-04-22 20:48:00,
2013-04-22 15:53:00,41.2,12.1,30.20,NE,49,4.0,5.6,30,0.00,,---,0.00,VWS V13.01,2013-04-22 20:53:00,
2013-04-22 15:59:00,40.8,12.5,30.17,NNE,21,5.6,7.4,31,0.00,,---,0.00,VWS V13.01,2013-04-22 20:59:00,
2013-04-22 16:04:00,40.5,12.9,30.17,NE,49,5.1,6.5,32,0.00,,---,0.00,VWS V13.01,2013-04-22 21:04:00,
2013-04-22 16:09:00,39.9,14.5,30.17,East,79,3.6,4.0,35,0.00,,---,0.00,VWS V13.01,2013-04-22 21:09:00,
2013-04-22 16:14:00,39.2,15.7,30.17,ENE,59,3.6,5.1,38,0.00,,---,0.00,VWS V13.01,2013-04-22 21:14:00,
2013-04-22 16:20:00,38.7,15.9,30.17,ESE,106,4.5,4.5,39,0.00,,---,0.00,VWS V13.01,2013-04-22 21:20:00,
2013-04-22 16:25:00,38.1,15.9,30.17,NE,36,5.6,5.6,40,0.00,,---,0.00,VWS V13.01,2013-04-22 21:25:00,
2013-04-22 16:31:00,37.6,16.0,30.20,East,99,3.6,5.6,41,0.00,,---,0.00,VWS V13.01,2013-04-22 21:31:00,
2013-04-22 16:36:00,37.2,16.3,30.20,NE,45,4.5,6.5,42,0.00,,---,0.00,VWS V13.01,2013-04-22 21:36:00,
2013-04-22 16:42:00,36.9,15.9,30.20,East,85,2.7,3.6,42,0.00,,---,0.00,VWS V13.01,2013-04-22 21:42:00,
2013-04-22 16:47:00,36.7,16.3,30.20,ENE,74,0.0,0.0,43,0.00,,---,0.00,VWS V13.01,2013-04-22 21:47:00,
2013-04-22 16:52:00,36.9,16.5,30.20,NE,49,4.5,4.5,43,0.00,,---,0.00,VWS V13.01,2013-04-22 21:52:00,
2013-04-22 16:58:00,36.9,17.0,30.20,ENE,78,4.0,4.0,44,0.00,,---,0.00,VWS V13.01,2013-04-22 21:58:00,
2013-04-22 17:04:00,36.9,17.0,30.20,East,90,0.0,0.0,44,0.00,,---,0.00,VWS V13.01,2013-04-22 22:04:00,
2013-04-22 17:09:00,36.9,17.0,30.20,ENE,71,4.0,4.5,44,0.00,,---,0.00,VWS V13.01,2013-04-22 22:09:00,
2013-04-22 17:15:00,36.9,17.5,30.20,NNE,31,3.6,4.5,45,0.00,,---,0.00,VWS V13.01,2013-04-22 22:15:00,
2013-04-22 17:20:00,36.9,17.5,30.20,ENE,59,3.1,3.1,45,0.00,,---,0.00,VWS V13.01,2013-04-22 22:20:00,
2013-04-22 17:25:00,36.9,17.5,30.20,NE,42,3.6,3.6,45,0.00,,---,0.00,VWS V13.01,2013-04-22 22:25:00,
2013-04-22 17:30:00,36.9,17.5,30.20,North,7,3.6,4.0,45,0.00,,---,0.00,VWS V13.01,2013-04-22 22:30:00,
2013-04-22 17:35:00,36.9,17.5,30.20,ENE,60,0.0,4.0,45,0.00,,---,0.00,VWS V13.01,2013-04-22 22:35:00,
2013-04-22 17:41:00,37.0,17.7,30.20,NE,40,4.5,4.5,45,0.00,,---,0.00,VWS V13.01,2013-04-22 22:41:00,
2013-04-22 17:46:00,37.0,18.2,30.17,ENE,76,3.1,3.1,46,0.00,,---,0.00,VWS V13.01,2013-04-22 22:46:00,
2013-04-22 17:52:00,37.2,18.4,30.17,NNE,27,3.1,4.0,46,0.00,,---,0.00,VWS V13.01,2013-04-22 22:52:00,
2013-04-22 17:57:00,37.4,16.4,30.17,NNE,23,5.6,7.8,42,0.00,,---,0.00,VWS V13.01,2013-04-22 22:57:00,
2013-04-22 18:03:00,37.4,15.9,30.17,NNE,23,6.0,6.0,41,0.00,,---,0.00,VWS V13.01,2013-04-22 23:03:00,
2013-04-22 18:08:00,37.4,15.9,30.17,NNE,25,5.1,5.1,41,0.00,,---,0.00,VWS V13.01,2013-04-22 23:08:00,
2013-04-22 18:14:00,37.4,16.4,30.17,NNE,29,4.5,4.7,42,0.00,,---,0.00,VWS V13.01,2013-04-22 23:14:00,
2013-04-22 18:20:00,37.2,16.3,30.17,NNE,22,4.7,4.7,42,0.00,,---,0.00,VWS V13.01,2013-04-22 23:20:00,
2013-04-22 18:25:00,37.2,16.3,30.17,NE,37,4.0,4.7,42,0.00,,---,0.00,VWS V13.01,2013-04-22 23:25:00,
2013-04-22 18:30:00,37.0,16.1,30.17,NNE,30,4.7,6.9,42,0.00,,---,0.00,VWS V13.01,2013-04-22 23:30:00,
2013-04-22 18:35:00,36.9,15.9,30.17,North,7,4.5,6.0,42,0.00,,---,0.00,VWS V13.01,2013-04-22 23:35:00,
2013-04-22 18:41:00,36.9,15.9,30.17,North,4,6.0,6.0,42,0.00,,---,0.00,VWS V13.01,2013-04-22 23:41:00,
2013-04-22 18:46:00,36.7,15.8,30.20,North,11,5.1,7.4,42,0.00,,---,0.00,VWS V13.01,2013-04-22 23:46:00,
2013-04-22 18:51:00,36.5,15.6,30.20,North,11,6.5,6.5,42,0.00,,---,0.00,VWS V13.01,2013-04-22 23:51:00,
2013-04-22 18:56:00,36.5,15.6,30.20,NNE,20,6.0,6.9,42,0.00,,---,0.00,VWS V13.01,2013-04-22 23:56:00,
2013-04-22 19:01:00,36.3,15.4,30.20,North,2,4.5,6.9,42,0.00,,---,0.00,VWS V13.01,2013-04-23 00:01:00,
2013-04-22 19:06:00,36.1,15.3,30.20,North,4,6.0,6.5,42,0.00,,---,0.00,VWS V13.01,2013-04-23 00:06:00,
2013-04-22 19:12:00,36.1,15.3,30.20,NE,35,5.1,5.6,42,0.00,,---,0.00,VWS V13.01,2013-04-23 00:12:00,
2013-04-22 19:17:00,36.0,15.6,30.20,NNE,15,6.0,6.0,43,0.00,,---,0.00,VWS V13.01,2013-04-23 00:17:00,
2013-04-22 19:23:00,35.8,15.5,30.20,North,11,8.7,8.7,43,0.00,,---,0.00,VWS V13.01,2013-04-23 00:23:00,
2013-04-22 19:28:00,35.4,16.2,30.20,NNE,17,5.6,8.7,45,0.00,,---,0.00,VWS V13.01,2013-04-23 00:28:00,
2013-04-22 19:34:00,34.9,17.2,30.20,North,2,4.7,5.1,48,0.00,,---,0.00,VWS V13.01,2013-04-23 00:34:00,
2013-04-22 19:40:00,34.5,17.8,30.20,NNW,348,6.5,6.5,50,0.00,,---,0.00,VWS V13.01,2013-04-23 00:40:00,
2013-04-22 19:45:00,34.2,18.4,30.20,NNE,20,4.5,5.6,52,0.00,,---,0.00,VWS V13.01,2013-04-23 00:45:00,
2013-04-22 19:51:00,34.0,18.7,30.20,North,9,5.6,5.6,53,0.00,,---,0.00,VWS V13.01,2013-04-23 00:51:00,
2013-04-22 19:57:00,34.0,20.0,30.20,NE,43,5.6,5.6,56,0.00,,---,0.00,VWS V13.01,2013-04-23 00:57:00,
2013-04-22 20:02:00,33.8,20.2,30.20,NNE,12,6.0,6.5,57,0.00,,---,0.00,VWS V13.01,2013-04-23 01:02:00,
2013-04-22 20:07:00,33.6,20.8,30.20,NNE,15,5.6,6.9,59,0.00,,---,0.00,VWS V13.01,2013-04-23 01:07:00,
2013-04-22 20:13:00,33.4,21.8,30.20,North,3,4.7,5.6,62,0.00,,---,0.00,VWS V13.01,2013-04-23 01:13:00,
2013-04-22 20:19:00,33.3,22.8,30.20,NNE,21,6.9,8.3,65,0.00,,---,0.00,VWS V13.01,2013-04-23 01:19:00,
2013-04-22 20:25:00,33.1,23.0,30.20,NNE,20,6.0,6.9,66,0.00,,---,0.00,VWS V13.01,2013-04-23 01:25:00,
2013-04-22 20:30:00,33.1,23.7,30.20,NE,47,5.1,6.0,68,0.00,,---,0.00,VWS V13.01,2013-04-23 01:30:00,
2013-04-22 20:35:00,32.9,24.2,30.20,NE,48,6.0,6.0,70,0.00,,---,0.00,VWS V13.01,2013-04-23 01:35:00,
2013-04-22 20:40:00,32.7,24.7,30.20,NNE,21,4.0,4.7,72,0.00,,---,0.00,VWS V13.01,2013-04-23 01:40:00,
2013-04-22 20:47:00,32.5,25.2,30.17,North,7,4.7,4.7,74,0.00,,---,0.00,VWS V13.01,2013-04-23 01:47:00,
2013-04-22 20:52:00,32.5,25.5,30.17,North,6,6.5,6.5,75,0.00,,---,0.00,VWS V13.01,2013-04-23 01:52:00,
2013-04-22 20:57:00,32.5,25.8,30.17,NNE,28,4.7,4.7,76,0.00,,---,0.00,VWS V13.01,2013-04-23 01:57:00,
2013-04-22 21:04:00,32.4,26.3,30.17,NE,38,6.0,6.0,78,0.00,,---,0.00,VWS V13.01,2013-04-23 02:04:00,
2013-04-22 21:09:00,32.4,26.6,30.17,North,9,4.5,6.9,79,0.00,,---,0.00,VWS V13.01,2013-04-23 02:09:00,
2013-04-22 21:15:00,32.4,26.6,30.17,NE,39,4.5,5.1,79,0.00,,---,0.00,VWS V13.01,2013-04-23 02:15:00,
2013-04-22 21:20:00,32.4,26.9,30.17,North,9,5.6,5.6,80,0.00,,---,0.00,VWS V13.01,2013-04-23 02:20:00,
2013-04-22 21:26:00,32.4,26.9,30.17,NE,51,4.5,6.0,80,0.00,,---,0.00,VWS V13.01,2013-04-23 02:26:00,
2013-04-22 21:33:00,32.4,27.2,30.17,NNE,19,6.0,6.5,81,0.00,,---,0.00,VWS V13.01,2013-04-23 02:33:00,
2013-04-22 21:39:00,32.4,27.5,30.17,NNE,17,4.0,6.0,82,0.00,,---,0.00,VWS V13.01,2013-04-23 02:39:00,
2013-04-22 21:44:00,32.4,27.5,30.17,NNE,33,4.7,6.0,82,0.00,,---,0.00,VWS V13.01,2013-04-23 02:44:00,
2013-04-22 21:49:00,32.2,27.3,30.17,NNE,32,4.7,6.9,82,0.00,,---,0.00,VWS V13.01,2013-04-23 02:49:00,
2013-04-22 21:54:00,32.2,27.3,30.17,NNE,24,4.5,4.5,82,0.00,,---,0.00,VWS V13.01,2013-04-23 02:54:00,
2013-04-22 22:00:00,32.2,27.6,30.17,North,10,3.6,4.7,83,0.00,,---,0.00,VWS V13.01,2013-04-23 03:00:00,
2013-04-22 22:05:00,32.2,27.6,30.17,NNE,32,4.5,4.5,83,0.00,,---,0.00,VWS V13.01,2013-04-23 03:05:00,
2013-04-22 22:11:00,32.2,27.6,30.17,NNE,13,3.1,4.7,83,0.00,,---,0.00,VWS V13.01,2013-04-23 03:11:00,
2013-04-22 22:16:00,32.2,27.6,30.17,NNE,25,4.7,4.7,83,0.00,,---,0.00,VWS V13.01,2013-04-23 03:16:00,
2013-04-22 22:21:00,32.2,27.6,30.17,North,10,4.0,4.5,83,0.00,,---,0.00,VWS V13.01,2013-04-23 03:21:00,
2013-04-22 22:27:00,32.2,27.6,30.17,North,9,4.0,5.6,83,0.00,,---,0.00,VWS V13.01,2013-04-23 03:27:00,
2013-04-22 22:32:00,32.2,27.6,30.17,NNE,19,3.6,3.6,83,0.00,,---,0.00,VWS V13.01,2013-04-23 03:32:00,
2013-04-22 22:37:00,32.2,27.6,30.17,North,3,4.0,4.5,83,0.00,,---,0.00,VWS V13.01,2013-04-23 03:37:00,
2013-04-22 22:42:00,32.2,27.6,30.17,NNE,19,4.7,4.7,83,0.00,,---,0.00,VWS V13.01,2013-04-23 03:42:00,
2013-04-22 22:47:00,32.0,27.4,30.17,NNE,33,4.0,4.7,83,0.00,,---,0.00,VWS V13.01,2013-04-23 03:47:00,
2013-04-22 22:52:00,32.0,27.4,30.17,NNE,12,3.6,5.1,83,0.00,,---,0.00,VWS V13.01,2013-04-23 03:52:00,
2013-04-22 22:57:00,32.0,27.7,30.17,NNE,12,4.0,4.0,84,0.00,,---,0.00,VWS V13.01,2013-04-23 03:57:00,
2013-04-22 23:01:00,32.0,27.7,30.17,NE,34,5.1,5.1,84,0.00,,---,0.00,VWS V13.01,2013-04-23 04:01:00,
2013-04-22 23:02:00,32.0,27.7,30.17,NNE,29,5.1,5.1,84,0.00,,---,0.00,VWS V13.01,2013-04-23 04:02:00,
2013-04-22 23:04:00,32.0,27.7,30.17,NNE,20,4.5,4.7,84,0.00,,---,0.00,VWS V13.01,2013-04-23 04:04:00,
2013-04-22 23:06:00,31.8,27.5,30.17,NNE,18,4.5,5.1,84,0.00,,---,0.00,VWS V13.01,2013-04-23 04:06:00,
2013-04-22 23:10:00,31.8,27.5,30.17,North,10,3.6,6.0,84,0.00,,---,0.00,VWS V13.01,2013-04-23 04:10:00,
2013-04-22 23:15:00,31.8,27.5,30.14,NNE,16,4.5,4.7,84,0.00,,---,0.00,VWS V13.01,2013-04-23 04:15:00,
2013-04-22 23:20:00,31.8,27.5,30.14,WSW,248,4.5,4.7,84,0.00,,---,0.00,VWS V13.01,2013-04-23 04:20:00,
2013-04-22 23:25:00,31.6,27.4,30.14,NE,37,4.0,5.1,84,0.00,,---,0.00,VWS V13.01,2013-04-23 04:25:00,
2013-04-22 23:30:00,31.6,27.4,30.14,NNE,14,4.5,6.5,84,0.00,,---,0.00,VWS V13.01,2013-04-23 04:30:00,
2013-04-22 23:36:00,31.6,27.4,30.14,NNE,12,3.6,5.6,84,0.00,,---,0.00,VWS V13.01,2013-04-23 04:36:00,
2013-04-22 23:41:00,31.6,27.4,30.14,NE,39,6.5,6.5,84,0.00,,---,0.00,VWS V13.01,2013-04-23 04:41:00,
2013-04-22 23:46:00,31.6,27.4,30.14,NNE,17,4.0,4.7,84,0.00,,---,0.00,VWS V13.01,2013-04-23 04:46:00,
2013-04-22 23:51:00,31.6,27.4,30.14,NE,42,4.7,4.7,84,0.00,,---,0.00,VWS V13.01,2013-04-23 04:51:00,
2013-04-22 23:56:00,31.6,27.4,30.14,NE,52,4.5,4.7,84,0.00,,---,0.00,VWS V13.01,2013-04-23 04:56:00,